Romeoville, Illinois
Current Conditions -  °F | °C
As of 2:55 PM on Tuesday 21 Oct 2014 (Local Time) from KLOT Reporting Station
Overcast Overcast  
Wind Chill: 52°   Ceiling: 3700
Heat Index: 52°   Visibility: 10mi
Dew Point: 40°   Wind: 13mph
Humidity: 63%   Direction: 30°NNE
Pressure: 30.17"   Gusts: 17mph
Location:  41.64°N, 88.08°W
Report Text: KLOT 211955Z AUTO 03011G15KT 10SM OVC037 11/04 A3017 RMK AO2 T01100043
Loading
Personal Weather Stations






























Interactive Weather Map
Tropical Storm Tracking
New forecast layout! Learn more

10-Day Weather Forecast

Advertisements
Track Severe Weather on mobile